Time;durP1;ratioP1;P1;durP2;ratioP2;P2;SDS_P1;SDS_P2;PMS_P1;PMS_P2;Temp;Humidity;BMP_temperature;BMP_pressure;BME280_temperature;BME280_humidity;BME280_pressure;Samples;Min_cycle;Max_cycle;Signal;HPM_P1;HPM_P2
2023/08/28 00:02:19;;;;;;;;;;;;;;;21.50;28.02;97551.41;5040492;28;948;-78
2023/08/28 00:04:44;;;;;;;;;;;;;;;21.90;27.75;97555.72;5056910;28;1906;-78
2023/08/28 00:07:10;;;;;;;;;;;;;;;21.79;27.57;97544.75;5074036;28;993;-78
2023/08/28 00:09:36;;;;;;;;;;;;;;;21.72;27.99;97551.47;5057028;28;1006;-78
2023/08/28 00:12:01;;;;;;;;;;;;;;;21.73;27.68;97547.38;5073628;28;996;-78
2023/08/28 00:14:27;;;;;;;;;;;;;;;21.80;27.75;97538.63;5087095;28;946;-78
2023/08/28 00:16:53;;;;;;;;;;;;;;;21.70;28.04;97541.81;5074795;28;1004;-78
2023/08/28 00:19:18;;;;;;;;;;;;;;;21.78;27.69;97538.31;5074534;28;957;-78
2023/08/28 00:21:44;;;;;;;;;;;;;;;21.74;27.67;97526.31;5058234;28;1070;-78
2023/08/28 00:24:09;;;;;;;;;;;;;;;21.75;27.84;97533.53;5074398;28;1906;-78
2023/08/28 00:26:35;;;;;;;;;;;;;;;21.86;27.81;97538.84;5076782;28;995;-78
2023/08/28 00:29:00;;;;;;;;;;;;;;;21.75;27.94;97533.53;5074917;28;1050;-78
2023/08/28 00:31:26;;;;;;;;;;;;;;;21.91;27.76;97537.47;5075755;28;945;-78
2023/08/28 00:33:52;;;;;;;;;;;;;;;21.71;27.93;97530.06;5074796;28;919;-77
2023/08/28 00:36:17;;;;;;;;;;;;;;;21.49;28.22;97532.81;5075996;28;878;-78
2023/08/28 00:38:43;;;;;;;;;;;;;;;21.57;28.41;97528.50;5076241;28;915;-77
2023/08/28 00:41:09;;;;;;;;;;;;;;;21.65;28.21;97540.38;5058194;28;1042;-78
2023/08/28 00:43:35;;;;;;;;;;;;;;;21.46;28.36;97524.47;5074543;28;1902;-78
2023/08/28 00:46:01;;;;;;;;;;;;;;;21.95;27.71;97523.97;5074898;28;912;-78
2023/08/28 00:48:26;;;;;;;;;;;;;;;21.69;28.22;97521.22;5074499;28;893;-78
2023/08/28 00:50:52;;;;;;;;;;;;;;;21.71;28.13;97521.56;5056575;28;1122;-78
2023/08/28 00:53:18;;;;;;;;;;;;;;;21.70;28.03;97525.63;5056777;28;1205;-78
2023/08/28 00:55:43;;;;;;;;;;;;;;;21.63;28.11;97525.09;5023414;28;1611;-78
2023/08/28 00:58:09;;;;;;;;;;;;;;;21.73;28.22;97523.94;5056462;28;926;-78
2023/08/28 01:00:34;;;;;;;;;;;;;;;21.77;28.34;97519.72;5039970;28;1257;-78
2023/08/28 01:03:00;;;;;;;;;;;;;;;21.82;28.08;97527.66;5040244;28;1303;-78
2023/08/28 01:05:35;;;;;;;;;;;;;;;21.78;28.25;97526.19;5040077;28;1926;-78
2023/08/28 01:08:12;;;;;;;;;;;;;;;21.64;28.35;97533.13;5077359;28;1000;-78
2023/08/28 01:10:39;;;;;;;;;;;;;;;21.65;28.71;97531.88;5043744;28;1275;-78
2023/08/28 01:13:06;;;;;;;;;;;;;;;21.67;28.55;97532.22;5040303;28;1141;-78
2023/08/28 01:15:31;;;;;;;;;;;;;;;22.00;27.98;97531.88;5023849;28;1182;-78
2023/08/28 01:17:58;;;;;;;;;;;;;;;21.82;28.32;97530.47;5024067;28;890;-78
2023/08/28 01:20:24;;;;;;;;;;;;;;;22.19;27.68;97539.31;5023825;28;1173;-78
2023/08/28 01:23:02;;;;;;;;;;;;;;;21.64;28.48;97533.13;5040309;28;1023;-78
2023/08/28 01:25:29;;;;;;;;;;;;;;;21.95;28.11;97536.09;5040579;28;1987;-78
2023/08/28 01:27:55;;;;;;;;;;;;;;;22.03;27.96;97536.66;5016825;28;1185;-78
2023/08/28 01:30:21;;;;;;;;;;;;;;;22.03;27.79;97530.97;4984778;28;1307;-78
2023/08/28 01:32:46;;;;;;;;;;;;;;;22.03;27.78;97528.16;5000345;28;1136;-78
2023/08/28 01:35:13;;;;;;;;;;;;;;;21.91;28.00;97528.97;5017026;28;998;-78
2023/08/28 01:37:44;;;;;;;;;;;;;;;22.19;27.70;97530.03;5000498;28;1145;-78
2023/08/28 01:40:09;;;;;;;;;;;;;;;21.78;28.29;97532.63;5000268;28;1023;-78
2023/08/28 01:42:35;;;;;;;;;;;;;;;22.05;27.99;97531.28;4984106;28;1266;-78
2023/08/28 01:45:01;;;;;;;;;;;;;;;22.29;27.75;97526.81;5055625;28;1991;-78
2023/08/28 01:47:26;;;;;;;;;;;;;;;22.10;27.84;97531.53;5059747;28;983;-78
2023/08/28 01:49:53;;;;;;;;;;;;;;;22.04;27.57;97521.22;5059368;28;1072;-78
2023/08/28 01:52:18;;;;;;;;;;;;;;;22.17;27.60;97519.13;5059583;28;1111;-78
2023/08/28 01:54:44;;;;;;;;;;;;;;;22.16;27.51;97528.91;5019339;28;1573;-78
2023/08/28 01:57:10;;;;;;;;;;;;;;;21.90;27.96;97533.84;5003233;28;1305;-78
2023/08/28 01:59:35;;;;;;;;;;;;;;;21.98;27.92;97523.06;5019458;28;1115;-78
2023/08/28 02:02:01;;;;;;;;;;;;;;;22.02;27.57;97540.69;5036399;28;1115;-78
2023/08/28 02:04:26;;;;;;;;;;;;;;;21.98;28.12;97538.00;5035910;28;1914;-78
2023/08/28 02:06:52;;;;;;;;;;;;;;;22.10;27.54;97542.03;4980139;28;1276;-77
2023/08/28 02:09:17;;;;;;;;;;;;;;;21.48;28.43;97541.75;5012024;28;1373;-78
2023/08/28 02:11:45;;;;;;;;;;;;;;;21.65;28.56;97529.03;4992867;28;1338;-78
2023/08/28 02:14:10;;;;;;;;;;;;;;;21.96;27.65;97525.53;4977282;28;1149;-78
2023/08/28 02:16:39;;;;;;;;;;;;;;;21.88;27.82;97529.91;4970373;28;1032;-78
2023/08/28 02:19:05;;;;;;;;;;;;;;;21.95;27.84;97532.47;4960631;28;1156;-78
2023/08/28 02:21:30;;;;;;;;;;;;;;;21.98;28.01;97534.41;4976680;28;1119;-78
2023/08/28 02:23:56;;;;;;;;;;;;;;;21.68;28.26;97528.13;4976467;28;1902;-77
2023/08/28 02:26:21;;;;;;;;;;;;;;;21.65;28.19;97529.03;4992608;28;1187;-78
2023/08/28 02:28:47;;;;;;;;;;;;;;;22.02;27.85;97518.03;4992922;28;1044;-78
2023/08/28 02:31:12;;;;;;;;;;;;;;;21.99;27.84;97519.75;4980890;28;980;-77
2023/08/28 02:33:38;;;;;;;;;;;;;;;21.97;27.77;97515.81;4982921;28;1003;-77
2023/08/28 02:36:04;;;;;;;;;;;;;;;21.80;28.05;97513.13;4999598;28;1031;-78
2023/08/28 02:38:29;;;;;;;;;;;;;;;21.72;28.25;97517.47;5030692;28;882;-78
2023/08/28 02:41:01;;;;;;;;;;;;;;;21.91;28.06;97514.81;5018859;28;1410;-78
2023/08/28 02:43:26;;;;;;;;;;;;;;;21.97;27.76;97513.00;5022165;28;1985;-78
2023/08/28 02:45:52;;;;;;;;;;;;;;;21.77;28.20;97513.28;5038647;28;1572;-78
2023/08/28 02:48:18;;;;;;;;;;;;;;;21.61;28.42;97517.06;5038452;28;1058;-78
2023/08/28 02:50:43;;;;;;;;;;;;;;;21.92;28.04;97519.25;5038661;28;955;-78
2023/08/28 02:53:09;;;;;;;;;;;;;;;21.91;27.78;97528.97;5041406;28;1272;-78
2023/08/28 02:55:37;;;;;;;;;;;;;;;21.92;27.76;97524.91;5076375;28;1535;-77
2023/08/28 02:58:03;;;;;;;;;;;;;;;21.91;28.22;97526.13;5038359;28;1126;-78
2023/08/28 03:00:28;;;;;;;;;;;;;;;21.71;28.29;97530.06;5055155;28;1109;-78
2023/08/28 03:02:54;;;;;;;;;;;;;;;21.52;28.34;97534.75;5038359;28;1166;-78
2023/08/28 03:05:19;;;;;;;;;;;;;;;21.73;28.32;97540.94;5054574;28;1910;-78
2023/08/28 03:07:45;;;;;;;;;;;;;;;21.68;28.28;97539.47;5055009;28;1636;-77
2023/08/28 03:10:10;;;;;;;;;;;;;;;21.70;28.20;97531.28;5054649;28;1221;-78
2023/08/28 03:12:36;;;;;;;;;;;;;;;22.13;27.61;97541.16;5021564;28;1334;-78
2023/08/28 03:15:02;;;;;;;;;;;;;;;21.75;28.17;97539.19;5021109;28;1228;-78
2023/08/28 03:17:27;;;;;;;;;;;;;;;21.90;27.60;97533.06;5021100;28;1102;-78
2023/08/28 03:19:53;;;;;;;;;;;;;;;22.11;27.55;97532.31;5021198;28;1169;-78
2023/08/28 03:22:18;;;;;;;;;;;;;;;21.78;27.79;97532.63;5037785;28;1155;-78
2023/08/28 03:24:44;;;;;;;;;;;;;;;21.96;27.73;97525.53;5054245;28;1905;-78
2023/08/28 03:27:09;;;;;;;;;;;;;;;21.84;27.58;97522.31;5054309;28;830;-78
2023/08/28 03:29:35;;;;;;;;;;;;;;;21.76;27.56;97529.47;5036964;28;980;-78
2023/08/28 03:32:02;;;;;;;;;;;;;;;21.83;27.70;97523.56;5005535;28;1221;-78
2023/08/28 03:34:27;;;;;;;;;;;;;;;21.62;27.85;97517.84;5037224;28;1099;-78
2023/08/28 03:36:52;;;;;;;;;;;;;;;21.94;27.44;97516.72;5057572;28;1214;-78
2023/08/28 03:39:18;;;;;;;;;;;;;;;21.89;27.75;97514.47;5040763;28;1461;-78
2023/08/28 03:41:44;;;;;;;;;;;;;;;21.90;27.58;97516.84;5041218;28;1158;-78
2023/08/28 03:44:09;;;;;;;;;;;;;;;22.21;27.16;97514.13;5040601;28;1989;-78
2023/08/28 03:46:35;;;;;;;;;;;;;;;22.06;27.20;97518.72;5057444;28;1112;-78
2023/08/28 03:49:00;;;;;;;;;;;;;;;21.89;27.87;97529.44;5040607;28;1055;-78
2023/08/28 03:51:26;;;;;;;;;;;;;;;21.96;27.58;97536.88;5057313;28;1098;-78
2023/08/28 03:53:51;;;;;;;;;;;;;;;21.95;27.85;97535.31;5040774;28;1146;-78
2023/08/28 03:56:17;;;;;;;;;;;;;;;22.04;27.31;97538.22;5040536;28;1280;-78
2023/08/28 03:58:42;;;;;;;;;;;;;;;22.07;27.59;97535.28;5040695;28;1150;-78
2023/08/28 04:01:08;;;;;;;;;;;;;;;22.13;27.64;97532.66;5057153;28;1188;-78
2023/08/28 04:03:33;;;;;;;;;;;;;;;22.02;27.75;97532.19;5057092;28;2030;-78
2023/08/28 04:05:59;;;;;;;;;;;;;;;21.95;27.84;97529.63;5056800;28;1245;-78
2023/08/28 04:08:25;;;;;;;;;;;;;;;21.82;28.18;97538.97;5024176;28;1303;-78
2023/08/28 04:10:52;;;;;;;;;;;;;;;21.99;27.90;97533.13;5073750;28;936;-78
2023/08/28 04:13:19;;;;;;;;;;;;;;;21.82;28.22;97533.31;5057283;28;1058;-78
2023/08/28 04:15:44;;;;;;;;;;;;;;;21.77;27.90;97533.09;5056985;28;1073;-78
2023/08/28 04:18:10;;;;;;;;;;;;;;;21.82;28.22;97532.53;5040455;28;1427;-78
2023/08/28 04:20:36;;;;;;;;;;;;;;;22.12;27.38;97533.88;5056623;28;739;-78
2023/08/28 04:23:02;;;;;;;;;;;;;;;21.81;28.04;97531.75;5039463;28;1345;-78
2023/08/28 04:25:28;;;;;;;;;;;;;;;21.68;28.35;97528.13;5056773;28;1973;-78
2023/08/28 04:27:54;;;;;;;;;;;;;;;21.97;27.89;97538.47;5056884;28;1125;-78
2023/08/28 04:30:19;;;;;;;;;;;;;;;22.18;27.71;97526.41;5057051;28;874;-78
2023/08/28 04:32:45;;;;;;;;;;;;;;;21.98;28.11;97528.72;5056848;28;1114;-77
2023/08/28 04:35:11;;;;;;;;;;;;;;;21.87;28.20;97534.00;5040298;28;1228;-78
2023/08/28 04:37:36;;;;;;;;;;;;;;;21.73;28.50;97530.38;5033224;28;937;-78
2023/08/28 04:40:03;;;;;;;;;;;;;;;21.83;28.48;97529.22;5018316;28;852;-77
2023/08/28 04:42:29;;;;;;;;;;;;;;;21.65;28.42;97526.22;4988780;28;1190;-78
2023/08/28 04:44:55;;;;;;;;;;;;;;;21.83;28.53;97522.78;5019544;28;1967;-78
2023/08/28 04:47:21;;;;;;;;;;;;;;;21.98;28.36;97508.91;5024641;28;1219;-78
2023/08/28 04:49:46;;;;;;;;;;;;;;;21.87;28.49;97517.00;5024508;28;1308;-78
2023/08/28 04:52:12;;;;;;;;;;;;;;;21.91;28.47;97520.47;5024398;28;1043;-78
2023/08/28 04:54:37;;;;;;;;;;;;;;;21.79;28.47;97511.56;5024482;28;1199;-78
2023/08/28 04:57:03;;;;;;;;;;;;;;;21.83;28.41;97523.56;5040904;28;1142;-78
2023/08/28 04:59:28;;;;;;;;;;;;;;;22.18;28.02;97523.56;5024184;28;1018;-78
2023/08/28 05:01:56;;;;;;;;;;;;;;;22.08;28.32;97521.88;5024398;28;1311;-78
2023/08/28 05:04:21;;;;;;;;;;;;;;;21.97;28.61;97525.09;5040681;28;1961;-78
2023/08/28 05:06:47;;;;;;;;;;;;;;;22.09;28.20;97520.63;5024027;28;1094;-78
2023/08/28 05:09:14;;;;;;;;;;;;;;;22.10;28.53;97519.38;5052276;28;1134;-78
2023/08/28 05:11:40;;;;;;;;;;;;;;;21.98;28.59;97506.06;5060510;28;1336;-78
2023/08/28 05:14:06;;;;;;;;;;;;;;;21.92;28.56;97514.38;5043734;28;1204;-78
2023/08/28 05:16:32;;;;;;;;;;;;;;;21.88;28.83;97507.25;5077230;28;1502;-78
2023/08/28 05:18:58;;;;;;;;;;;;;;;22.00;28.79;97509.22;5057039;28;1174;-78
2023/08/28 05:21:23;;;;;;;;;;;;;;;21.93;28.80;97509.50;5023998;28;1510;-78
2023/08/28 05:23:50;;;;;;;;;;;;;;;22.20;28.51;97512.56;5023787;28;1906;-78
2023/08/28 05:26:16;;;;;;;;;;;;;;;22.03;28.82;97502.66;5057158;28;1044;-78
2023/08/28 05:28:41;;;;;;;;;;;;;;;21.99;28.94;97510.47;5040134;28;1213;-78
2023/08/28 05:31:07;;;;;;;;;;;;;;;22.15;28.65;97509.53;5056663;28;1055;-78
2023/08/28 05:33:33;;;;;;;;;;;;;;;21.95;29.12;97506.97;5039709;28;1408;-78
2023/08/28 05:35:59;;;;;;;;;;;;;;;21.96;29.06;97508.56;5039998;28;1044;-78
2023/08/28 05:38:24;;;;;;;;;;;;;;;22.12;28.54;97508.38;5039904;28;1222;-78
2023/08/28 05:40:50;;;;;;;;;;;;;;;22.05;29.01;97511.47;5040080;28;1201;-78
2023/08/28 05:43:15;;;;;;;;;;;;;;;22.16;28.80;97513.94;5023302;28;2003;-78
2023/08/28 05:45:41;;;;;;;;;;;;;;;22.00;28.95;97503.56;5056384;28;1106;-78
2023/08/28 05:48:07;;;;;;;;;;;;;;;21.97;29.10;97510.16;5040020;28;1156;-78
2023/08/28 05:50:32;;;;;;;;;;;;;;;22.03;28.98;97514.75;4994937;28;1330;-78
2023/08/28 05:53:00;;;;;;;;;;;;;;;22.06;28.80;97519.50;4999675;28;1092;-78
2023/08/28 05:55:25;;;;;;;;;;;;;;;22.22;28.85;97527.03;4977168;28;1029;-78
2023/08/28 05:57:51;;;;;;;;;;;;;;;22.04;29.11;97529.72;4961436;28;1534;-78
2023/08/28 06:00:17;;;;;;;;;;;;;;;22.19;28.88;97530.81;4944931;28;1180;-78
2023/08/28 06:02:42;;;;;;;;;;;;;;;22.06;29.05;97527.22;4957645;29;1010;-78
2023/08/28 06:05:08;;;;;;;;;;;;;;;21.77;29.36;97533.91;4925891;29;1906;-78
2023/08/28 06:07:34;;;;;;;;;;;;;;;21.78;29.65;97531.84;4942563;29;978;-78
2023/08/28 06:09:59;;;;;;;;;;;;;;;21.87;29.72;97534.00;4942009;29;1031;-78
2023/08/28 06:12:25;;;;;;;;;;;;;;;22.14;28.94;97533.44;4926166;29;1620;-78
2023/08/28 06:14:50;;;;;;;;;;;;;;;22.03;29.19;97536.66;4941905;29;1112;-78
2023/08/28 06:17:17;;;;;;;;;;;;;;;21.69;29.70;97534.59;4940698;28;1192;-78
2023/08/28 06:19:43;;;;;;;;;;;;;;;21.97;29.37;97541.31;4960986;28;1195;-78
2023/08/28 06:22:09;;;;;;;;;;;;;;;22.34;28.73;97545.25;4990594;28;1140;-78
2023/08/28 06:24:35;;;;;;;;;;;;;;;22.35;28.89;97544.78;4983547;28;1971;-78
2023/08/28 06:27:01;;;;;;;;;;;;;;;21.98;29.51;97540.06;5017986;28;981;-78
2023/08/28 06:29:27;;;;;;;;;;;;;;;21.90;29.50;97550.03;5039710;28;1285;-78
2023/08/28 06:31:53;;;;;;;;;;;;;;;21.99;29.73;97541.63;5038927;28;1560;-78
2023/08/28 06:34:18;;;;;;;;;;;;;;;21.96;29.60;97548.22;5038609;28;1633;-78
2023/08/28 06:36:45;;;;;;;;;;;;;;;22.33;29.00;97544.47;5055659;28;1775;-79
2023/08/28 06:39:11;;;;;;;;;;;;;;;21.92;29.57;97547.56;5065348;28;1691;-79
2023/08/28 06:41:37;;;;;;;;;;;;;;;22.04;29.56;97543.88;5058833;28;1770;-79
2023/08/28 06:44:05;;;;;;;;;;;;;;;22.10;29.32;97536.38;5109317;28;1918;-79
2023/08/28 06:46:31;;;;;;;;;;;;;;;22.01;29.53;97550.47;5077726;28;968;-79
2023/08/28 06:48:56;;;;;;;;;;;;;;;22.39;29.03;97555.22;5110225;28;961;-78
2023/08/28 06:51:22;;;;;;;;;;;;;;;22.30;28.99;97553.88;5077657;28;1066;-79
2023/08/28 06:53:51;;;;;;;;;;;;;;;22.43;28.73;97561.53;5092857;28;1634;-79
2023/08/28 06:56:16;;;;;;;;;;;;;;;22.36;29.19;97554.88;5092035;28;1074;-79
2023/08/28 06:58:42;;;;;;;;;;;;;;;22.48;28.68;97556.06;5093367;28;922;-79
2023/08/28 07:01:07;;;;;;;;;;;;;;;21.99;29.87;97564.31;5077337;28;915;-79
2023/08/28 07:03:33;;;;;;;;;;;;;;;22.09;29.50;97563.91;5074568;28;1965;-79
2023/08/28 07:05:58;;;;;;;;;;;;;;;22.14;29.42;97571.06;5110236;28;948;-79
2023/08/28 07:08:24;;;;;;;;;;;;;;;22.02;29.79;97557.69;5074846;28;1249;-78
2023/08/28 07:10:49;;;;;;;;;;;;;;;22.28;29.48;97558.44;5074892;28;1126;-79
2023/08/28 07:13:15;;;;;;;;;;;;;;;22.33;29.10;97561.47;5051667;28;1094;-79
2023/08/28 07:15:40;;;;;;;;;;;;;;;22.33;29.28;97557.84;5018274;28;979;-79
2023/08/28 07:18:06;;;;;;;;;;;;;;;22.13;29.39;97557.38;5054488;28;1194;-79
2023/08/28 07:20:31;;;;;;;;;;;;;;;22.22;29.42;97561.06;5038058;28;935;-79
2023/08/28 07:22:57;;;;;;;;;;;;;;;22.22;29.59;97566.72;5037745;28;992;-79
2023/08/28 07:25:23;;;;;;;;;;;;;;;22.22;29.59;97565.94;5037729;28;1983;-79
2023/08/28 07:27:51;;;;;;;;;;;;;;;22.40;29.24;97556.78;5054488;28;1013;-79
2023/08/28 07:30:17;;;;;;;;;;;;;;;22.28;29.55;97561.28;5037973;28;1093;-79
2023/08/28 07:32:42;;;;;;;;;;;;;;;22.07;29.91;97559.94;5054691;28;1018;-80
2023/08/28 07:35:08;;;;;;;;;;;;;;;21.85;30.25;97565.56;5055232;28;1422;-80
2023/08/28 07:37:34;;;;;;;;;;;;;;;21.81;30.08;97568.56;5038509;28;811;-80
2023/08/28 07:40:03;;;;;;;;;;;;;;;22.21;29.66;97565.16;5038501;28;949;-80
2023/08/28 07:42:29;;;;;;;;;;;;;;;22.24;29.72;97567.06;5055109;28;984;-80
2023/08/28 07:44:55;;;;;;;;;;;;;;;22.28;29.49;97569.78;5054127;28;1967;-80
2023/08/28 07:47:20;;;;;;;;;;;;;;;22.16;29.92;97568.56;5075036;28;1383;-80
2023/08/28 07:49:46;;;;;;;;;;;;;;;22.23;29.74;97565.50;5076439;28;906;-80
2023/08/28 07:52:11;;;;;;;;;;;;;;;22.22;30.00;97572.38;5076169;28;1172;-80
2023/08/28 07:54:37;;;;;;;;;;;;;;;22.09;30.10;97574.47;5109543;28;885;-80
2023/08/28 07:57:04;;;;;;;;;;;;;;;22.24;29.97;97567.06;5109543;28;949;-80
2023/08/28 07:59:29;;;;;;;;;;;;;;;22.24;29.82;97575.56;5116265;28;1088;-80
2023/08/28 08:01:55;;;;;;;;;;;;;;;22.38;29.80;97573.47;5115244;28;815;-80
2023/08/28 08:04:21;;;;;;;;;;;;;;;22.27;29.55;97571.81;5098377;28;1905;-80
2023/08/28 08:06:46;;;;;;;;;;;;;;;22.28;29.90;97581.13;5098929;28;1093;-80
2023/08/28 08:09:12;;;;;;;;;;;;;;;21.93;30.41;97566.94;5098069;28;978;-80
2023/08/28 08:11:37;;;;;;;;;;;;;;;22.00;30.50;97582.88;5115510;28;722;-80
2023/08/28 08:14:03;;;;;;;;;;;;;;;22.31;29.89;97575.31;5098604;28;919;-80
2023/08/28 08:16:29;;;;;;;;;;;;;;;22.02;30.46;97569.03;5098173;28;866;-80
2023/08/28 08:18:54;;;;;;;;;;;;;;;22.08;30.23;97562.34;5098156;28;921;-80
2023/08/28 08:21:20;;;;;;;;;;;;;;;22.22;30.10;97571.59;5115601;28;746;-80
2023/08/28 08:23:45;;;;;;;;;;;;;;;22.29;29.88;97571.34;5074204;28;1910;-80
2023/08/28 08:26:12;;;;;;;;;;;;;;;22.16;30.31;97562.09;5041643;28;1001;-79
2023/08/28 08:28:38;;;;;;;;;;;;;;;22.21;30.25;97562.31;5040968;28;1237;-80
2023/08/28 08:31:03;;;;;;;;;;;;;;;22.20;30.04;97560.72;5059420;28;820;-80
2023/08/28 08:33:29;;;;;;;;;;;;;;;22.22;30.18;97555.38;5071026;28;955;-80
2023/08/28 08:35:54;;;;;;;;;;;;;;;22.05;30.52;97554.75;5071476;28;905;-80
2023/08/28 08:38:21;;;;;;;;;;;;;;;22.35;30.10;97553.28;5050900;28;1282;-81
2023/08/28 08:40:48;;;;;;;;;;;;;;;22.52;29.78;97548.22;5018115;28;1111;-80
2023/08/28 08:43:13;;;;;;;;;;;;;;;22.22;30.26;97555.38;5017769;28;1116;-80
2023/08/28 08:45:39;;;;;;;;;;;;;;;22.26;30.15;97547.56;5017945;28;1906;-80
2023/08/28 08:48:05;;;;;;;;;;;;;;;22.38;30.14;97550.78;5034151;28;1531;-80
2023/08/28 08:50:31;;;;;;;;;;;;;;;22.17;30.18;97547.47;5030515;28;1497;-80
2023/08/28 08:52:58;;;;;;;;;;;;;;;22.12;30.50;97545.22;5043626;28;1573;-80
2023/08/28 08:55:29;;;;;;;;;;;;;;;22.42;30.05;97557.13;5061426;28;1586;-81
2023/08/28 08:57:55;;;;;;;;;;;;;;;22.53;29.72;97569.63;5050885;28;1533;-80
2023/08/28 09:00:21;;;;;;;;;;;;;;;22.29;30.09;97554.34;5057503;28;1047;-79
2023/08/28 09:02:46;;;;;;;;;;;;;;;22.12;30.40;97550.88;5057514;28;869;-80
2023/08/28 09:05:12;;;;;;;;;;;;;;;22.51;29.68;97554.34;5057202;28;1975;-80
2023/08/28 09:07:38;;;;;;;;;;;;;;;22.18;30.27;97549.06;5038864;28;1534;-80
2023/08/28 09:10:04;;;;;;;;;;;;;;;22.13;30.48;97552.50;5050304;28;972;-80
2023/08/28 09:12:30;;;;;;;;;;;;;;;22.57;29.98;97547.63;5033628;28;1052;-80
2023/08/28 09:14:55;;;;;;;;;;;;;;;22.19;30.37;97542.16;5033599;28;910;-80
2023/08/28 09:17:21;;;;;;;;;;;;;;;22.05;30.76;97546.25;5017398;28;1157;-80
2023/08/28 09:19:47;;;;;;;;;;;;;;;22.24;30.23;97546.44;5001294;28;1201;-80
2023/08/28 09:22:13;;;;;;;;;;;;;;;22.15;30.78;97544.31;5017582;28;962;-80
2023/08/28 09:24:38;;;;;;;;;;;;;;;22.40;30.09;97531.28;5017388;28;1962;-80
2023/08/28 09:27:04;;;;;;;;;;;;;;;22.06;30.60;97536.50;5034713;28;1185;-80
2023/08/28 09:29:30;;;;;;;;;;;;;;;22.10;30.81;97536.38;5005066;28;1305;-80
2023/08/28 09:32:04;;;;;;;;;;;;;;;22.28;30.41;97530.91;5056738;28;1546;-80
2023/08/28 09:34:47;;;;;;;;;;;;;;;22.45;30.23;97527.84;5040774;28;1592;-80
2023/08/28 09:37:13;;;;;;;;;;;;;;;22.55;29.90;97538.78;5024069;28;1066;-80
2023/08/28 09:39:39;;;;;;;;;;;;;;;22.58;29.94;97526.50;5040708;28;1530;-80
2023/08/28 09:42:05;;;;;;;;;;;;;;;22.35;30.43;97519.28;5036917;28;1233;-80
2023/08/28 09:44:34;;;;;;;;;;;;;;;22.32;30.32;97525.88;5022374;28;1969;-80
2023/08/28 09:46:59;;;;;;;;;;;;;;;22.31;30.54;97529.16;5040615;28;1020;-80
2023/08/28 09:49:25;;;;;;;;;;;;;;;22.58;30.02;97522.88;5057193;28;1049;-80
2023/08/28 09:51:51;;;;;;;;;;;;;;;22.64;29.84;97523.88;5040584;28;965;-80
2023/08/28 09:54:16;;;;;;;;;;;;;;;22.48;30.14;97522.03;5040406;28;951;-80
2023/08/28 09:56:42;;;;;;;;;;;;;;;22.35;30.34;97529.84;5056868;28;1521;-80
2023/08/28 09:59:09;;;;;;;;;;;;;;;22.39;30.37;97518.38;5056318;28;1636;-80
2023/08/28 10:01:35;;;;;;;;;;;;;;;22.19;30.72;97522.31;5019921;28;1709;-80
2023/08/28 10:04:01;;;;;;;;;;;;;;;22.48;30.23;97521.25;5049765;28;1906;-80
2023/08/28 10:06:27;;;;;;;;;;;;;;;22.07;30.92;97520.28;5039941;28;1638;-80
2023/08/28 10:09:00;;;;;;;;;;;;;;;22.42;30.56;97511.75;5040026;28;1538;-79
2023/08/28 10:11:46;;;;;;;;;;;;;;;22.64;29.93;97506.88;5039802;28;1589;-79
2023/08/28 10:14:11;;;;;;;;;;;;;;;22.35;30.31;97507.94;5077512;28;981;-79
2023/08/28 10:16:39;;;;;;;;;;;;;;;22.48;30.36;97502.19;5077302;28;1689;-80
2023/08/28 10:19:10;;;;;;;;;;;;;;;22.46;30.28;97495.41;5117043;28;953;-80
2023/08/28 10:21:37;;;;;;;;;;;;;;;22.28;30.43;97491.22;5100201;28;956;-79
2023/08/28 10:24:03;;;;;;;;;;;;;;;22.36;30.53;97491.72;5100145;28;1909;-79
2023/08/28 10:26:28;;;;;;;;;;;;;;;22.31;30.54;97495.16;5073997;28;1221;-79
2023/08/28 10:28:54;;;;;;;;;;;;;;;22.61;29.84;97493.63;5057782;28;1297;-80
2023/08/28 10:31:19;;;;;;;;;;;;;;;22.40;30.47;97491.59;5061137;28;1710;-78
2023/08/28 10:33:45;;;;;;;;;;;;;;;22.51;29.99;97498.44;5057316;28;1284;-80
2023/08/28 10:36:10;;;;;;;;;;;;;;;22.48;30.15;97498.56;5076161;28;861;-79
2023/08/28 10:38:36;;;;;;;;;;;;;;;22.48;30.25;97493.69;5073892;28;1496;-80
2023/08/28 10:41:01;;;;;;;;;;;;;;;22.52;30.31;97496.38;5055979;28;1486;-80
2023/08/28 10:43:27;;;;;;;;;;;;;;;22.22;30.73;97487.38;5061373;28;1910;-80
2023/08/28 10:45:55;;;;;;;;;;;;;;;22.48;30.35;97490.06;5071071;28;1596;-80
2023/08/28 10:48:21;;;;;;;;;;;;;;;22.26;30.68;97493.69;5059232;28;875;-79
2023/08/28 10:50:46;;;;;;;;;;;;;;;22.32;30.46;97491.06;5030988;28;1242;-80
2023/08/28 10:53:15;;;;;;;;;;;;;;;22.57;30.28;97478.78;5071968;28;1465;-80
2023/08/28 10:55:56;;;;;;;;;;;;;;;22.16;30.89;97477.88;5072556;28;1162;-79
2023/08/28 10:58:22;;;;;;;;;;;;;;;22.60;30.38;97466.53;5055288;28;1163;-79
2023/08/28 11:01:13;;;;;;;;;;;;;;;22.39;30.38;97478.69;5092948;28;1148;-79
2023/08/28 11:03:51;;;;;;;;;;;;;;;22.52;30.40;97470.88;5076452;28;1973;-80
2023/08/28 11:06:34;;;;;;;;;;;;;;;22.51;30.33;97483.47;5076832;28;1547;-80
2023/08/28 11:09:18;;;;;;;;;;;;;;;22.45;30.33;97465.50;5077502;28;1507;-80
2023/08/28 11:11:44;;;;;;;;;;;;;;;22.29;30.66;97475.00;5076710;28;1585;-79
2023/08/28 11:14:13;;;;;;;;;;;;;;;22.61;30.40;97473.75;5092109;28;1617;-80
2023/08/28 11:16:39;;;;;;;;;;;;;;;22.82;29.89;97464.41;5073529;28;1211;-80
2023/08/28 11:19:05;;;;;;;;;;;;;;;22.51;30.48;97463.63;5094077;28;1397;-80
2023/08/28 11:21:38;;;;;;;;;;;;;;;22.65;30.07;97463.06;5080906;28;1363;-80
2023/08/28 11:24:15;;;;;;;;;;;;;;;22.56;30.18;97457.34;5095081;28;1959;-80
2023/08/28 11:26:44;;;;;;;;;;;;;;;22.63;30.21;97448.56;5069474;28;1777;-80
2023/08/28 11:29:24;;;;;;;;;;;;;;;22.50;30.47;97445.03;5081824;28;1384;-80
2023/08/28 11:31:50;;;;;;;;;;;;;;;22.47;30.33;97451.63;5076195;28;1371;-80
2023/08/28 11:34:15;;;;;;;;;;;;;;;22.34;30.71;97444.00;5077227;28;832;-80
2023/08/28 11:36:41;;;;;;;;;;;;;;;22.27;30.77;97437.81;5077063;28;862;-80
2023/08/28 11:39:08;;;;;;;;;;;;;;;22.36;30.59;97458.50;5075976;28;907;-80
2023/08/28 11:41:33;;;;;;;;;;;;;;;22.33;30.91;97459.44;5082830;28;794;-80
2023/08/28 11:43:59;;;;;;;;;;;;;;;22.55;30.23;97447.28;5077385;28;1902;-80
2023/08/28 11:46:24;;;;;;;;;;;;;;;22.38;30.46;97445.91;5077129;28;1468;-80
2023/08/28 11:48:50;;;;;;;;;;;;;;;22.51;30.66;97446.63;5076170;28;1443;-80
2023/08/28 11:51:15;;;;;;;;;;;;;;;22.65;30.40;97451.72;5076839;28;1496;-80
2023/08/28 11:53:41;;;;;;;;;;;;;;;22.41;30.72;97453.50;5077244;28;915;-80
2023/08/28 11:56:07;;;;;;;;;;;;;;;22.43;30.72;97453.81;5059918;28;1097;-80
2023/08/28 11:58:33;;;;;;;;;;;;;;;22.43;30.78;97450.97;5075580;28;824;-80
2023/08/28 12:01:00;;;;;;;;;;;;;;;22.53;30.60;97446.94;5076150;28;928;-80
2023/08/28 12:03:25;;;;;;;;;;;;;;;22.34;30.86;97438.34;5075944;28;993;-80
2023/08/28 12:05:59;;;;;;;;;;;;;;;22.68;30.13;97439.44;5076514;28;1977;-80
2023/08/28 12:08:24;;;;;;;;;;;;;;;22.77;29.95;97448.00;5075572;28;922;-81
2023/08/28 12:10:50;;;;;;;;;;;;;;;22.74;30.18;97437.59;5076660;28;895;-80
2023/08/28 12:13:19;;;;;;;;;;;;;;;22.48;30.69;97441.88;5075781;28;872;-80
2023/08/28 12:15:44;;;;;;;;;;;;;;;22.80;30.02;97441.41;5076531;28;927;-80
2023/08/28 12:18:10;;;;;;;;;;;;;;;22.68;30.04;97445.13;5058949;28;1456;-80
2023/08/28 12:20:36;;;;;;;;;;;;;;;22.79;29.96;97439.81;5075322;28;1248;-80
2023/08/28 12:23:01;;;;;;;;;;;;;;;22.63;30.00;97445.72;5076850;28;1330;-80
2023/08/28 12:25:31;;;;;;;;;;;;;;;22.56;30.20;97437.50;5106578;28;1913;-81
2023/08/28 12:28:06;;;;;;;;;;;;;;;22.72;29.92;97444.97;5080715;28;1318;-80
2023/08/28 12:30:32;;;;;;;;;;;;;;;22.47;30.48;97445.97;5055531;28;1200;-81
2023/08/28 12:32:57;;;;;;;;;;;;;;;22.35;30.58;97439.91;5055423;28;858;-80
2023/08/28 12:35:23;;;;;;;;;;;;;;;22.19;30.66;97436.53;5038866;28;981;-80
2023/08/28 12:37:51;;;;;;;;;;;;;;;21.89;31.30;97424.63;5055178;28;1279;-81
2023/08/28 12:40:17;;;;;;;;;;;;;;;21.64;31.73;97419.88;5055262;28;839;-80
2023/08/28 12:42:42;;;;;;;;;;;;;;;21.69;31.44;97422.13;5056655;28;848;-80
2023/08/28 12:45:08;;;;;;;;;;;;;;;21.77;31.45;97420.63;5038640;28;1918;-80
2023/08/28 12:47:34;;;;;;;;;;;;;;;22.16;30.78;97420.44;5056445;28;751;-80
2023/08/28 12:49:59;;;;;;;;;;;;;;;22.41;30.26;97425.16;5055659;28;1065;-80
2023/08/28 12:52:24;;;;;;;;;;;;;;;22.30;30.62;97415.00;5038771;28;739;-80
2023/08/28 12:54:50;;;;;;;;;;;;;;;22.51;30.18;97418.25;5055241;28;834;-80
2023/08/28 12:57:15;;;;;;;;;;;;;;;22.69;29.55;97418.34;5055682;28;794;-80